»·PEaware :: N143VT KOAK-KFAT

N143VT :: KOAK-KFAT

FLIGHT INFORMATION

Flight Status: Arrived
Operator: Privately registered:
United States
More flights under this callsign
Pilot: Anonymous 16492 (16492)
Aircraft: Unknown
(EPIC)
More flights by this aircraft type
Origin: KOAK Metro Oakland Intl
United States
Destination: KFAT Fresno Yosemite Intl
United States
More flights between these airports :: More routes between these airports
Route: CNDEL4 NTELL
File this flight plan on PilotEdge
Remarks:
Altitude:
(Current/Filed)
11,000ft
Speed:
(Current/Filed)
330kts
Departed: 04-Oct-18 04:39 PM
Arrived: 04-Oct-18 05:22 PM
Distance/Time
Traveled:
132nm/0:43
Distance/Time
To Go:
Arrived

Flight Plot

Page will automatically refresh every two minutes.

Flight plan parsing failed; only flown route is shown


Map Options




Map Legend


Flown Route
Filed Route
Departure Airport
Arrival Airport
Navaid (VOR, NDB)
Fix

Horizontal Profiles

Position Reports

Time Latitude Longitude Heading Altitude Ground
Speed
04-Oct-18 16:23 37.728043 -122.208407 126 12ft 0kts
04-Oct-18 16:24 37.728043 -122.208407 126 12ft 0kts
04-Oct-18 16:25 37.728043 -122.208407 126 12ft 0kts
04-Oct-18 16:26 37.728043 -122.208407 126 12ft 0kts
04-Oct-18 16:27 37.728043 -122.208407 126 12ft 0kts
04-Oct-18 16:28 37.728043 -122.208407 126 12ft 0kts
04-Oct-18 16:29 37.728043 -122.208407 126 12ft 0kts
04-Oct-18 16:30 37.728043 -122.208407 126 12ft 0kts
04-Oct-18 16:31 37.728042 -122.208406 126 12ft 0kts
04-Oct-18 16:32 37.728042 -122.208406 126 12ft 0kts
04-Oct-18 16:33 37.728042 -122.208406 126 12ft 0kts
04-Oct-18 16:34 37.728042 -122.208406 126 12ft 0kts
04-Oct-18 16:35 37.727742 -122.208469 215 12ft 9kts
04-Oct-18 16:36 37.727573 -122.208614 214 12ft 0kts
04-Oct-18 16:37 37.727503 -122.208676 215 12ft 4kts
04-Oct-18 16:38 37.725736 -122.204561 117 12ft 0kts
04-Oct-18 16:39 37.725736 -122.204561 117 12ft 0kts
04-Oct-18 16:40 37.725009 -122.205270 290 12ft 0kts
04-Oct-18 16:41 37.745126 -122.238859 296 1067ft 196kts
04-Oct-18 16:42 37.763588 -122.304331 287 4634ft 175kts
04-Oct-18 16:43 37.763714 -122.362669 206 7831ft 191kts
04-Oct-18 16:44 37.709276 -122.376063 197 9192ft 206kts
04-Oct-18 16:45 37.655287 -122.397966 201 10511ft 210kts
04-Oct-18 16:46 37.597807 -122.424121 201 10984ft 242kts
04-Oct-18 16:47 37.532411 -122.454597 202 10980ft 257kts
04-Oct-18 16:48 37.469608 -122.429606 133 10983ft 275kts
04-Oct-18 16:49 37.421114 -122.353936 126 10981ft 281kts
04-Oct-18 16:50 37.396790 -122.260943 104 10980ft 284kts
04-Oct-18 16:51 37.377224 -122.164896 103 10978ft 284kts
04-Oct-18 16:52 37.358039 -122.069001 103 10972ft 285kts
04-Oct-18 16:53 37.338884 -121.973418 103 10967ft 285kts
04-Oct-18 16:54 37.319621 -121.877703 103 10961ft 285kts
04-Oct-18 16:55 37.300329 -121.782266 103 10954ft 285kts
04-Oct-18 16:56 37.280972 -121.686937 103 10947ft 285kts
04-Oct-18 16:57 37.261427 -121.591100 103 10949ft 284kts
04-Oct-18 16:58 37.241806 -121.495324 103 10951ft 284kts
04-Oct-18 16:59 37.222159 -121.399846 103 10952ft 284kts
04-Oct-18 17:00 37.202298 -121.303764 104 10953ft 285kts
04-Oct-18 17:01 37.182532 -121.208559 104 10955ft 285kts
04-Oct-18 17:02 37.162639 -121.113050 105 10955ft 285kts
04-Oct-18 17:03 37.142863 -121.018590 105 10954ft 285kts
04-Oct-18 17:04 37.123032 -120.924367 106 10951ft 284kts
04-Oct-18 17:05 37.103702 -120.832925 106 10931ft 250kts
04-Oct-18 17:06 37.086977 -120.754191 106 9621ft 243kts
04-Oct-18 17:07 37.070055 -120.674738 105 8224ft 239kts
04-Oct-18 17:08 37.053120 -120.595454 104 6821ft 236kts
04-Oct-18 17:09 37.036435 -120.517540 104 5481ft 231kts
04-Oct-18 17:10 37.019887 -120.440597 104 4151ft 229kts
04-Oct-18 17:11 37.003762 -120.365702 104 2984ft 220kts
04-Oct-18 17:12 36.989909 -120.301668 105 2929ft 165kts
04-Oct-18 17:13 36.976764 -120.241003 105 2940ft 207kts
04-Oct-18 17:14 36.961540 -120.171116 105 2934ft 206kts
04-Oct-18 17:15 36.946322 -120.101417 105 2936ft 213kts
04-Oct-18 17:16 36.930490 -120.029292 104 2928ft 220kts
04-Oct-18 17:17 36.914189 -119.954985 104 2927ft 224kts
04-Oct-18 17:18 36.893532 -119.884702 128 2928ft 225kts
04-Oct-18 17:19 36.844830 -119.831706 145 2120ft 238kts
04-Oct-18 17:20 36.802052 -119.789217 131 1962ft 178kts
04-Oct-18 17:21 36.772207 -119.745528 129 1231ft 151kts
04-Oct-18 17:22 36.750928 -119.710557 99 844ft 120kts
04-Oct-18 17:23 36.770037 -119.709697 305 430ft 95kts
04-Oct-18 17:24 36.779882 -119.726916 303 338ft 19kts
04-Oct-18 17:25 36.778213 -119.728170 126 338ft 22kts
04-Oct-18 17:26 36.775017 -119.724160 126 338ft 6kts
04-Oct-18 17:34 36.774970 -119.724081 126 338ft 0kts
04-Oct-18 17:35 36.774970 -119.724081 126 338ft 0kts
04-Oct-18 17:36 36.774970 -119.724081 126 338ft 0kts
04-Oct-18 17:37 36.774970 -119.724081 126 338ft 0kts
04-Oct-18 17:38 36.774970 -119.724081 126 338ft 0kts

Navigation Log

Ident Type
Flight plan parsing failed, navigation log unavailable